sensor_id;sensor_type;location;lat;lon;timestamp;temperature;humidity
50606;DHT22;36557;53.572;10.170;2023-04-24T07:21:56;13.20;99.90
50606;DHT22;36557;53.572;10.170;2023-04-24T07:24:24;13.00;99.90
50606;DHT22;36557;53.572;10.170;2023-04-24T07:26:51;13.10;99.90
50606;DHT22;36557;53.572;10.170;2023-04-24T07:29:17;13.00;99.90
50606;DHT22;36557;53.572;10.170;2023-04-24T07:31:43;13.30;99.90
50606;DHT22;36557;53.572;10.170;2023-04-24T07:34:09;13.50;99.90
50606;DHT22;36557;53.572;10.170;2023-04-24T07:36:35;13.30;99.90
50606;DHT22;36557;53.572;10.170;2023-04-24T07:39:01;13.50;99.90
50606;DHT22;36557;53.572;10.170;2023-04-24T07:41:26;13.80;99.90
50606;DHT22;36557;53.572;10.170;2023-04-24T07:43:53;14.10;99.90
50606;DHT22;36557;53.572;10.170;2023-04-24T07:46:19;14.40;99.90
50606;DHT22;36557;53.572;10.170;2023-04-24T07:48:45;14.10;99.90
50606;DHT22;36557;53.572;10.170;2023-04-24T07:51:14;14.00;99.90
50606;DHT22;36557;53.572;10.170;2023-04-24T07:53:40;14.30;99.90
50606;DHT22;36557;53.572;10.170;2023-04-24T07:56:06;14.50;99.90
50606;DHT22;36557;53.572;10.170;2023-04-24T07:58:32;14.20;99.90
50606;DHT22;36557;53.572;10.170;2023-04-24T08:00:57;14.30;99.90
50606;DHT22;36557;53.572;10.170;2023-04-24T08:03:23;14.00;99.90
50606;DHT22;36557;53.572;10.170;2023-04-24T08:05:50;14.10;99.90
50606;DHT22;36557;53.572;10.170;2023-04-24T08:08:16;14.40;99.90
50606;DHT22;36557;53.572;10.170;2023-04-24T08:10:42;14.10;99.90
50606;DHT22;36557;53.572;10.170;2023-04-24T08:13:08;14.20;99.90
50606;DHT22;36557;53.572;10.170;2023-04-24T08:15:34;14.20;99.90
50606;DHT22;36557;53.572;10.170;2023-04-24T08:17:59;13.80;99.90
50606;DHT22;36557;53.572;10.170;2023-04-24T08:20:25;14.00;99.90
50606;DHT22;36557;53.572;10.170;2023-04-24T08:22:51;13.90;99.90
50606;DHT22;36557;53.572;10.170;2023-04-24T08:25:17;13.60;99.90
50606;DHT22;36557;53.572;10.170;2023-04-24T08:27:44;13.60;99.90
50606;DHT22;36557;53.572;10.170;2023-04-24T08:30:10;13.90;99.90
50606;DHT22;36557;53.572;10.170;2023-04-24T08:32:36;13.90;99.90
50606;DHT22;36557;53.572;10.170;2023-04-24T08:35:02;13.50;99.90
50606;DHT22;36557;53.572;10.170;2023-04-24T08:37:29;13.50;99.90
50606;DHT22;36557;53.572;10.170;2023-04-24T08:39:55;13.40;99.90
50606;DHT22;36557;53.572;10.170;2023-04-24T08:42:21;13.20;99.90
50606;DHT22;36557;53.572;10.170;2023-04-24T08:44:49;13.20;99.90
50606;DHT22;36557;53.572;10.170;2023-04-24T08:47:15;13.30;99.90
50606;DHT22;36557;53.572;10.170;2023-04-24T08:49:41;13.40;99.90
50606;DHT22;36557;53.572;10.170;2023-04-24T08:52:08;13.60;99.90
50606;DHT22;36557;53.572;10.170;2023-04-24T08:54:35;14.00;99.90
50606;DHT22;36557;53.572;10.170;2023-04-24T08:57:01;14.40;99.90
50606;DHT22;36557;53.572;10.170;2023-04-24T08:59:31;14.30;99.90
50606;DHT22;36557;53.572;10.170;2023-04-24T09:01:59;14.00;99.90
50606;DHT22;36557;53.572;10.170;2023-04-24T09:04:25;14.00;99.90
50606;DHT22;36557;53.572;10.170;2023-04-24T09:06:55;13.90;99.90
50606;DHT22;36557;53.572;10.170;2023-04-24T09:09:23;14.00;99.90
50606;DHT22;36557;53.572;10.170;2023-04-24T09:11:52;14.00;99.90
50606;DHT22;36557;53.572;10.170;2023-04-24T09:14:21;14.00;99.90
50606;DHT22;36557;53.572;10.170;2023-04-24T09:16:49;14.20;99.90
50606;DHT22;36557;53.572;10.170;2023-04-24T09:19:15;14.20;99.90
50606;DHT22;36557;53.572;10.170;2023-04-24T09:21:40;14.20;99.90
50606;DHT22;36557;53.572;10.170;2023-04-24T09:24:17;14.00;99.90
50606;DHT22;36557;53.572;10.170;2023-04-24T09:26:43;13.90;99.90
50606;DHT22;36557;53.572;10.170;2023-04-24T09:29:17;13.70;99.90
50606;DHT22;36557;53.572;10.170;2023-04-24T09:31:43;13.60;99.90
50606;DHT22;36557;53.572;10.170;2023-04-24T09:34:09;13.40;99.90
50606;DHT22;36557;53.572;10.170;2023-04-24T09:36:40;13.30;99.90
50606;DHT22;36557;53.572;10.170;2023-04-24T09:39:08;13.50;99.90
50606;DHT22;36557;53.572;10.170;2023-04-24T09:41:53;13.60;99.90
50606;DHT22;36557;53.572;10.170;2023-04-24T09:44:24;13.70;99.90
50606;DHT22;36557;53.572;10.170;2023-04-24T09:46:57;13.50;99.90
50606;DHT22;36557;53.572;10.170;2023-04-24T09:49:27;13.80;99.90
50606;DHT22;36557;53.572;10.170;2023-04-24T09:52:06;13.90;99.90
50606;DHT22;36557;53.572;10.170;2023-04-24T09:54:32;13.90;99.90
50606;DHT22;36557;53.572;10.170;2023-04-24T09:56:58;13.90;99.90
50606;DHT22;36557;53.572;10.170;2023-04-24T09:59:25;14.00;99.90
50606;DHT22;36557;53.572;10.170;2023-04-24T10:01:51;14.10;99.90
50606;DHT22;36557;53.572;10.170;2023-04-24T10:04:23;14.30;99.90
50606;DHT22;36557;53.572;10.170;2023-04-24T10:06:50;14.60;99.90
50606;DHT22;36557;53.572;10.170;2023-04-24T10:09:21;14.70;99.90
50606;DHT22;36557;53.572;10.170;2023-04-24T10:11:48;15.00;99.70
50606;DHT22;36557;53.572;10.170;2023-04-24T10:14:20;14.60;99.90
50606;DHT22;36557;53.572;10.170;2023-04-24T10:16:47;15.10;99.90
50606;DHT22;36557;53.572;10.170;2023-04-24T10:19:14;15.50;99.70
50606;DHT22;36557;53.572;10.170;2023-04-24T10:21:41;15.70;99.50
50606;DHT22;36557;53.572;10.170;2023-04-24T10:24:12;14.90;98.60
50606;DHT22;36557;53.572;10.170;2023-04-24T10:26:38;14.60;99.60
50606;DHT22;36557;53.572;10.170;2023-04-24T10:29:06;14.30;99.90
50606;DHT22;36557;53.572;10.170;2023-04-24T10:31:36;14.20;99.90
50606;DHT22;36557;53.572;10.170;2023-04-24T10:34:05;14.10;99.90
50606;DHT22;36557;53.572;10.170;2023-04-24T10:36:35;14.00;99.90
50606;DHT22;36557;53.572;10.170;2023-04-24T10:39:03;14.00;99.90
50606;DHT22;36557;53.572;10.170;2023-04-24T10:41:32;13.90;99.90
50606;DHT22;36557;53.572;10.170;2023-04-24T10:44:24;14.30;99.90
50606;DHT22;36557;53.572;10.170;2023-04-24T10:46:54;14.10;99.90
50606;DHT22;36557;53.572;10.170;2023-04-24T10:49:30;13.80;99.90
50606;DHT22;36557;53.572;10.170;2023-04-24T10:52:01;13.90;99.90
50606;DHT22;36557;53.572;10.170;2023-04-24T10:57:34;13.60;99.90
50606;DHT22;36557;53.572;10.170;2023-04-24T11:00:15;13.40;99.90
50606;DHT22;36557;53.572;10.170;2023-04-24T11:02:41;13.40;99.90
50606;DHT22;36557;53.572;10.170;2023-04-24T11:05:15;13.60;99.90
50606;DHT22;36557;53.572;10.170;2023-04-24T11:08:13;13.80;99.90
50606;DHT22;36557;53.572;10.170;2023-04-24T11:10:47;14.40;99.90
50606;DHT22;36557;53.572;10.170;2023-04-24T11:13:22;15.00;99.90
50606;DHT22;36557;53.572;10.170;2023-04-24T11:24:48;13.80;99.70
50606;DHT22;36557;53.572;10.170;2023-04-24T11:27:18;14.70;99.90
50606;DHT22;36557;53.572;10.170;2023-04-24T11:32:29;15.80;98.80
50606;DHT22;36557;53.572;10.170;2023-04-24T11:34:57;16.00;98.10
50606;DHT22;36557;53.572;10.170;2023-04-24T11:37:26;16.30;97.30
50606;DHT22;36557;53.572;10.170;2023-04-24T11:39:53;15.60;96.80
50606;DHT22;36557;53.572;10.170;2023-04-24T11:42:21;15.20;97.40
50606;DHT22;36557;53.572;10.170;2023-04-24T11:44:48;14.80;97.80
50606;DHT22;36557;53.572;10.170;2023-04-24T11:47:15;14.90;98.10
50606;DHT22;36557;53.572;10.170;2023-04-24T11:49:41;14.70;98.30
50606;DHT22;36557;53.572;10.170;2023-04-24T11:52:06;14.60;98.20
50606;DHT22;36557;53.572;10.170;2023-04-24T11:54:32;14.50;98.10
50606;DHT22;36557;53.572;10.170;2023-04-24T11:56:58;14.80;98.40
50606;DHT22;36557;53.572;10.170;2023-04-24T11:59:24;15.00;98.30
50606;DHT22;36557;53.572;10.170;2023-04-24T12:01:49;15.30;98.50
50606;DHT22;36557;53.572;10.170;2023-04-24T12:04:17;15.10;97.90
50606;DHT22;36557;53.572;10.170;2023-04-24T12:07:02;14.90;97.60
50606;DHT22;36557;53.572;10.170;2023-04-24T12:09:28;14.80;97.80
50606;DHT22;36557;53.572;10.170;2023-04-24T12:11:55;14.90;97.40
50606;DHT22;36557;53.572;10.170;2023-04-24T12:14:22;14.70;96.80
50606;DHT22;36557;53.572;10.170;2023-04-24T12:16:49;14.80;96.80
50606;DHT22;36557;53.572;10.170;2023-04-24T12:19:22;15.10;97.20
50606;DHT22;36557;53.572;10.170;2023-04-24T12:22:05;15.30;96.30
50606;DHT22;36557;53.572;10.170;2023-04-24T12:24:31;15.10;95.70
50606;DHT22;36557;53.572;10.170;2023-04-24T12:26:58;15.20;96.40
50606;DHT22;36557;53.572;10.170;2023-04-24T12:29:24;15.40;96.20
50606;DHT22;36557;53.572;10.170;2023-04-24T12:31:54;15.50;96.40
50606;DHT22;36557;53.572;10.170;2023-04-24T12:34:20;15.40;96.30
50606;DHT22;36557;53.572;10.170;2023-04-24T12:36:46;15.10;95.50
50606;DHT22;36557;53.572;10.170;2023-04-24T12:39:16;15.10;95.80
50606;DHT22;36557;53.572;10.170;2023-04-24T12:41:56;15.10;95.50
50606;DHT22;36557;53.572;10.170;2023-04-24T12:44:33;15.20;96.00
50606;DHT22;36557;53.572;10.170;2023-04-24T12:47:02;15.10;96.30
50606;DHT22;36557;53.572;10.170;2023-04-24T12:49:30;15.00;96.20
50606;DHT22;36557;53.572;10.170;2023-04-24T12:51:56;14.50;96.60
50606;DHT22;36557;53.572;10.170;2023-04-24T12:54:22;14.30;96.90
50606;DHT22;36557;53.572;10.170;2023-04-24T12:56:47;14.30;97.50
50606;DHT22;36557;53.572;10.170;2023-04-24T12:59:13;14.00;98.00
50606;DHT22;36557;53.572;10.170;2023-04-24T13:01:40;13.90;98.30
50606;DHT22;36557;53.572;10.170;2023-04-24T13:04:06;13.80;98.40
50606;DHT22;36557;53.572;10.170;2023-04-24T13:06:31;13.60;98.30
50606;DHT22;36557;53.572;10.170;2023-04-24T13:08:57;13.50;98.20
50606;DHT22;36557;53.572;10.170;2023-04-24T13:11:24;13.50;98.70
50606;DHT22;36557;53.572;10.170;2023-04-24T13:13:50;13.60;98.70
50606;DHT22;36557;53.572;10.170;2023-04-24T13:16:16;13.50;98.70
50606;DHT22;36557;53.572;10.170;2023-04-24T13:18:41;13.60;99.10
50606;DHT22;36557;53.572;10.170;2023-04-24T13:21:07;13.50;99.20
50606;DHT22;36557;53.572;10.170;2023-04-24T13:23:33;13.30;99.30
50606;DHT22;36557;53.572;10.170;2023-04-24T13:26:00;13.20;99.60
50606;DHT22;36557;53.572;10.170;2023-04-24T13:28:26;13.10;99.70
50606;DHT22;36557;53.572;10.170;2023-04-24T13:30:53;13.20;99.90
50606;DHT22;36557;53.572;10.170;2023-04-24T13:33:19;13.20;99.90
50606;DHT22;36557;53.572;10.170;2023-04-24T13:35:44;12.90;99.90
50606;DHT22;36557;53.572;10.170;2023-04-24T13:38:10;12.70;99.90
50606;DHT22;36557;53.572;10.170;2023-04-24T13:40:36;12.60;99.90
50606;DHT22;36557;53.572;10.170;2023-04-24T13:43:02;12.40;99.90
50606;DHT22;36557;53.572;10.170;2023-04-24T13:45:28;12.50;99.90
50606;DHT22;36557;53.572;10.170;2023-04-24T13:47:53;12.40;99.90
50606;DHT22;36557;53.572;10.170;2023-04-24T13:50:20;12.40;99.90
50606;DHT22;36557;53.572;10.170;2023-04-24T13:52:45;12.40;99.90
50606;DHT22;36557;53.572;10.170;2023-04-24T13:55:11;12.50;99.90
50606;DHT22;36557;53.572;10.170;2023-04-24T13:57:37;12.60;99.90
50606;DHT22;36557;53.572;10.170;2023-04-24T14:00:03;12.70;99.90
50606;DHT22;36557;53.572;10.170;2023-04-24T14:02:29;12.70;99.90
50606;DHT22;36557;53.572;10.170;2023-04-24T14:04:55;12.70;99.90
50606;DHT22;36557;53.572;10.170;2023-04-24T14:07:21;12.70;99.90
50606;DHT22;36557;53.572;10.170;2023-04-24T14:09:47;12.80;99.90
50606;DHT22;36557;53.572;10.170;2023-04-24T14:12:13;12.70;99.90
50606;DHT22;36557;53.572;10.170;2023-04-24T14:14:39;12.50;99.90
50606;DHT22;36557;53.572;10.170;2023-04-24T14:17:05;12.40;99.90
50606;DHT22;36557;53.572;10.170;2023-04-24T14:19:31;12.30;99.90
50606;DHT22;36557;53.572;10.170;2023-04-24T14:21:57;12.30;99.90
50606;DHT22;36557;53.572;10.170;2023-04-24T14:24:23;12.30;99.90
50606;DHT22;36557;53.572;10.170;2023-04-24T14:26:49;12.30;99.90
50606;DHT22;36557;53.572;10.170;2023-04-24T14:29:15;12.40;99.90
50606;DHT22;36557;53.572;10.170;2023-04-24T14:31:42;12.50;99.90
50606;DHT22;36557;53.572;10.170;2023-04-24T14:34:08;12.60;99.90
50606;DHT22;36557;53.572;10.170;2023-04-24T14:36:33;12.70;99.90
50606;DHT22;36557;53.572;10.170;2023-04-24T14:38:59;12.70;99.90
50606;DHT22;36557;53.572;10.170;2023-04-24T14:41:25;12.90;99.90
50606;DHT22;36557;53.572;10.170;2023-04-24T14:43:50;12.80;99.90
50606;DHT22;36557;53.572;10.170;2023-04-24T14:46:16;13.00;99.90
50606;DHT22;36557;53.572;10.170;2023-04-24T14:48:42;12.80;99.90
50606;DHT22;36557;53.572;10.170;2023-04-24T14:51:07;12.90;99.90
50606;DHT22;36557;53.572;10.170;2023-04-24T14:53:33;13.00;99.90
50606;DHT22;36557;53.572;10.170;2023-04-24T14:55:59;13.10;99.90
50606;DHT22;36557;53.572;10.170;2023-04-24T14:58:25;13.10;99.90
50606;DHT22;36557;53.572;10.170;2023-04-24T15:00:50;12.90;99.90
50606;DHT22;36557;53.572;10.170;2023-04-24T15:03:18;12.70;99.90
50606;DHT22;36557;53.572;10.170;2023-04-24T15:05:44;12.60;99.90
50606;DHT22;36557;53.572;10.170;2023-04-24T15:08:10;12.30;99.90
50606;DHT22;36557;53.572;10.170;2023-04-24T15:10:36;12.10;99.90
50606;DHT22;36557;53.572;10.170;2023-04-24T15:13:01;12.10;99.90
50606;DHT22;36557;53.572;10.170;2023-04-24T15:15:27;11.80;99.90
50606;DHT22;36557;53.572;10.170;2023-04-24T15:17:53;11.90;99.90
50606;DHT22;36557;53.572;10.170;2023-04-24T15:20:18;11.80;99.90
50606;DHT22;36557;53.572;10.170;2023-04-24T15:22:44;11.40;99.90
50606;DHT22;36557;53.572;10.170;2023-04-24T15:25:10;11.50;99.90
50606;DHT22;36557;53.572;10.170;2023-04-24T15:27:43;11.40;99.90
50606;DHT22;36557;53.572;10.170;2023-04-24T15:30:09;11.30;99.90
50606;DHT22;36557;53.572;10.170;2023-04-24T15:32:36;11.10;99.90
50606;DHT22;36557;53.572;10.170;2023-04-24T15:35:02;11.00;99.90
50606;DHT22;36557;53.572;10.170;2023-04-24T15:37:27;11.00;99.90
50606;DHT22;36557;53.572;10.170;2023-04-24T15:39:53;10.90;99.90
50606;DHT22;36557;53.572;10.170;2023-04-24T15:42:19;10.80;99.90
50606;DHT22;36557;53.572;10.170;2023-04-24T15:44:44;10.70;99.90
50606;DHT22;36557;53.572;10.170;2023-04-24T15:47:10;10.50;99.90
50606;DHT22;36557;53.572;10.170;2023-04-24T15:49:37;10.40;99.90
50606;DHT22;36557;53.572;10.170;2023-04-24T15:52:03;10.30;99.90
50606;DHT22;36557;53.572;10.170;2023-04-24T15:54:29;10.40;99.90
50606;DHT22;36557;53.572;10.170;2023-04-24T15:56:55;10.50;99.90
50606;DHT22;36557;53.572;10.170;2023-04-24T15:59:21;10.40;99.90
50606;DHT22;36557;53.572;10.170;2023-04-24T16:01:48;10.20;99.90
50606;DHT22;36557;53.572;10.170;2023-04-24T16:04:13;9.90;99.90
50606;DHT22;36557;53.572;10.170;2023-04-24T16:06:40;10.10;99.90
50606;DHT22;36557;53.572;10.170;2023-04-24T16:09:05;10.20;99.90
50606;DHT22;36557;53.572;10.170;2023-04-24T16:11:33;10.30;99.90
50606;DHT22;36557;53.572;10.170;2023-04-24T16:14:01;10.10;99.90
50606;DHT22;36557;53.572;10.170;2023-04-24T16:16:27;9.90;99.90
50606;DHT22;36557;53.572;10.170;2023-04-24T16:18:53;9.90;99.90
50606;DHT22;36557;53.572;10.170;2023-04-24T16:21:20;9.80;99.90
50606;DHT22;36557;53.572;10.170;2023-04-24T16:23:46;9.60;99.90
50606;DHT22;36557;53.572;10.170;2023-04-24T16:26:11;9.70;99.90
50606;DHT22;36557;53.572;10.170;2023-04-24T16:28:38;9.60;99.90
50606;DHT22;36557;53.572;10.170;2023-04-24T16:31:04;9.50;99.90
50606;DHT22;36557;53.572;10.170;2023-04-24T16:33:30;9.40;99.90
50606;DHT22;36557;53.572;10.170;2023-04-24T16:35:56;9.30;99.90
50606;DHT22;36557;53.572;10.170;2023-04-24T16:38:21;9.30;99.90
50606;DHT22;36557;53.572;10.170;2023-04-24T16:40:49;9.20;99.90
50606;DHT22;36557;53.572;10.170;2023-04-24T16:43:15;9.10;99.90
50606;DHT22;36557;53.572;10.170;2023-04-24T16:45:41;8.90;99.90
50606;DHT22;36557;53.572;10.170;2023-04-24T16:48:06;8.90;99.90
50606;DHT22;36557;53.572;10.170;2023-04-24T16:50:33;8.70;99.90
50606;DHT22;36557;53.572;10.170;2023-04-24T16:52:59;8.80;99.90
50606;DHT22;36557;53.572;10.170;2023-04-24T16:55:25;8.80;99.90
50606;DHT22;36557;53.572;10.170;2023-04-24T16:57:50;8.70;99.90
50606;DHT22;36557;53.572;10.170;2023-04-24T17:00:16;8.70;99.90
50606;DHT22;36557;53.572;10.170;2023-04-24T17:02:42;8.70;99.90
50606;DHT22;36557;53.572;10.170;2023-04-24T17:05:13;8.70;99.90
50606;DHT22;36557;53.572;10.170;2023-04-24T17:07:39;8.70;99.90
50606;DHT22;36557;53.572;10.170;2023-04-24T17:10:06;8.80;99.90
50606;DHT22;36557;53.572;10.170;2023-04-24T17:12:33;8.70;99.90
50606;DHT22;36557;53.572;10.170;2023-04-24T17:14:59;8.90;99.90
50606;DHT22;36557;53.572;10.170;2023-04-24T17:17:25;8.90;99.90
50606;DHT22;36557;53.572;10.170;2023-04-24T17:19:51;8.80;99.90
50606;DHT22;36557;53.572;10.170;2023-04-24T17:22:17;8.80;99.90
50606;DHT22;36557;53.572;10.170;2023-04-24T17:24:42;8.80;99.90
50606;DHT22;36557;53.572;10.170;2023-04-24T17:27:08;8.80;99.90
50606;DHT22;36557;53.572;10.170;2023-04-24T17:29:34;8.90;99.90
50606;DHT22;36557;53.572;10.170;2023-04-24T17:32:00;8.80;99.90
50606;DHT22;36557;53.572;10.170;2023-04-24T17:34:25;8.90;99.90
50606;DHT22;36557;53.572;10.170;2023-04-24T17:36:51;8.90;99.90
50606;DHT22;36557;53.572;10.170;2023-04-24T17:39:17;9.00;99.90
50606;DHT22;36557;53.572;10.170;2023-04-24T17:41:42;8.90;99.90
50606;DHT22;36557;53.572;10.170;2023-04-24T17:44:08;8.90;99.90
50606;DHT22;36557;53.572;10.170;2023-04-24T17:46:34;8.70;99.90
50606;DHT22;36557;53.572;10.170;2023-04-24T17:49:00;8.90;99.90
50606;DHT22;36557;53.572;10.170;2023-04-24T17:51:25;8.80;99.90
50606;DHT22;36557;53.572;10.170;2023-04-24T17:53:52;8.80;99.90
50606;DHT22;36557;53.572;10.170;2023-04-24T17:56:18;8.70;99.90
50606;DHT22;36557;53.572;10.170;2023-04-24T17:58:44;8.70;99.90
50606;DHT22;36557;53.572;10.170;2023-04-24T18:01:10;8.70;99.90
50606;DHT22;36557;53.572;10.170;2023-04-24T18:03:36;8.60;99.90
50606;DHT22;36557;53.572;10.170;2023-04-24T18:06:03;8.70;99.90
50606;DHT22;36557;53.572;10.170;2023-04-24T18:08:29;8.70;99.90
50606;DHT22;36557;53.572;10.170;2023-04-24T18:10:55;8.70;99.90
50606;DHT22;36557;53.572;10.170;2023-04-24T18:13:22;8.70;99.90
50606;DHT22;36557;53.572;10.170;2023-04-24T18:15:48;8.60;99.90
50606;DHT22;36557;53.572;10.170;2023-04-24T18:18:13;8.50;99.90
50606;DHT22;36557;53.572;10.170;2023-04-24T18:20:39;8.50;99.90
50606;DHT22;36557;53.572;10.170;2023-04-24T18:23:05;8.60;99.90
50606;DHT22;36557;53.572;10.170;2023-04-24T18:25:31;8.60;99.90
50606;DHT22;36557;53.572;10.170;2023-04-24T18:27:57;8.50;99.90
50606;DHT22;36557;53.572;10.170;2023-04-24T18:30:23;8.50;99.90
50606;DHT22;36557;53.572;10.170;2023-04-24T18:32:50;8.50;99.90
50606;DHT22;36557;53.572;10.170;2023-04-24T18:35:20;8.50;99.90
50606;DHT22;36557;53.572;10.170;2023-04-24T18:37:45;8.40;99.90
50606;DHT22;36557;53.572;10.170;2023-04-24T18:40:14;8.40;99.90
50606;DHT22;36557;53.572;10.170;2023-04-24T18:42:41;8.40;99.90
50606;DHT22;36557;53.572;10.170;2023-04-24T18:47:34;8.50;99.90
50606;DHT22;36557;53.572;10.170;2023-04-24T18:50:00;8.50;99.90
50606;DHT22;36557;53.572;10.170;2023-04-24T18:52:26;8.60;99.90
50606;DHT22;36557;53.572;10.170;2023-04-24T18:54:51;8.60;99.90
50606;DHT22;36557;53.572;10.170;2023-04-24T18:57:17;8.60;99.90
50606;DHT22;36557;53.572;10.170;2023-04-24T18:59:43;8.60;99.90
50606;DHT22;36557;53.572;10.170;2023-04-24T19:02:09;8.60;99.90
50606;DHT22;36557;53.572;10.170;2023-04-24T19:04:34;8.60;99.90
50606;DHT22;36557;53.572;10.170;2023-04-24T19:07:00;8.70;99.90
50606;DHT22;36557;53.572;10.170;2023-04-24T19:09:26;8.70;99.90
50606;DHT22;36557;53.572;10.170;2023-04-24T19:11:52;8.60;99.90
50606;DHT22;36557;53.572;10.170;2023-04-24T19:16:44;8.60;99.90
50606;DHT22;36557;53.572;10.170;2023-04-24T19:19:10;8.50;99.90
50606;DHT22;36557;53.572;10.170;2023-04-24T19:21:36;8.60;99.90
50606;DHT22;36557;53.572;10.170;2023-04-24T19:24:02;8.60;99.90
50606;DHT22;36557;53.572;10.170;2023-04-24T19:26:27;8.70;99.90
50606;DHT22;36557;53.572;10.170;2023-04-24T19:28:56;8.70;99.90
50606;DHT22;36557;53.572;10.170;2023-04-24T19:31:24;8.70;99.90
50606;DHT22;36557;53.572;10.170;2023-04-24T19:33:49;8.60;99.90
50606;DHT22;36557;53.572;10.170;2023-04-24T19:36:15;8.60;99.90
50606;DHT22;36557;53.572;10.170;2023-04-24T19:38:45;8.70;99.90
50606;DHT22;36557;53.572;10.170;2023-04-24T19:41:11;8.60;99.90
50606;DHT22;36557;53.572;10.170;2023-04-24T19:43:37;8.60;99.90
50606;DHT22;36557;53.572;10.170;2023-04-24T19:46:03;8.60;99.90
50606;DHT22;36557;53.572;10.170;2023-04-24T19:48:29;8.60;99.90
50606;DHT22;36557;53.572;10.170;2023-04-24T19:51:00;8.60;99.90
50606;DHT22;36557;53.572;10.170;2023-04-24T19:53:27;8.60;99.90
50606;DHT22;36557;53.572;10.170;2023-04-24T19:55:53;8.60;99.90
50606;DHT22;36557;53.572;10.170;2023-04-24T20:47:05;8.70;99.90
50606;DHT22;36557;53.572;10.170;2023-04-24T20:49:31;8.60;99.90
50606;DHT22;36557;53.572;10.170;2023-04-24T20:51:57;8.60;99.90
50606;DHT22;36557;53.572;10.170;2023-04-24T20:54:24;8.60;99.90
50606;DHT22;36557;53.572;10.170;2023-04-24T20:56:49;8.60;99.90
50606;DHT22;36557;53.572;10.170;2023-04-24T20:59:15;8.50;99.90
50606;DHT22;36557;53.572;10.170;2023-04-24T21:01:41;8.50;99.90
50606;DHT22;36557;53.572;10.170;2023-04-24T21:04:09;8.40;99.90
50606;DHT22;36557;53.572;10.170;2023-04-24T21:06:35;8.50;99.90
50606;DHT22;36557;53.572;10.170;2023-04-24T21:09:00;8.50;99.90
50606;DHT22;36557;53.572;10.170;2023-04-24T21:13:52;8.60;99.90
50606;DHT22;36557;53.572;10.170;2023-04-24T21:16:18;8.50;99.90
50606;DHT22;36557;53.572;10.170;2023-04-24T21:18:44;8.50;99.90
50606;DHT22;36557;53.572;10.170;2023-04-24T21:21:10;8.50;99.90
50606;DHT22;36557;53.572;10.170;2023-04-24T21:23:35;8.50;99.90
50606;DHT22;36557;53.572;10.170;2023-04-24T21:26:04;8.40;99.90
50606;DHT22;36557;53.572;10.170;2023-04-24T21:28:31;8.40;99.90
50606;DHT22;36557;53.572;10.170;2023-04-24T21:35:49;8.40;99.90
50606;DHT22;36557;53.572;10.170;2023-04-24T21:38:14;8.40;99.90
50606;DHT22;36557;53.572;10.170;2023-04-24T21:40:43;8.40;99.90
50606;DHT22;36557;53.572;10.170;2023-04-24T21:43:09;8.40;99.90
50606;DHT22;36557;53.572;10.170;2023-04-24T21:45:36;8.40;99.90
50606;DHT22;36557;53.572;10.170;2023-04-24T21:48:02;8.40;99.90
50606;DHT22;36557;53.572;10.170;2023-04-24T21:50:28;8.40;99.90
50606;DHT22;36557;53.572;10.170;2023-04-24T21:52:53;8.40;99.90
50606;DHT22;36557;53.572;10.170;2023-04-24T21:55:19;8.40;99.90
50606;DHT22;36557;53.572;10.170;2023-04-24T21:57:45;8.40;99.90
50606;DHT22;36557;53.572;10.170;2023-04-24T22:00:11;8.40;99.90
50606;DHT22;36557;53.572;10.170;2023-04-24T22:02:38;8.30;99.90
50606;DHT22;36557;53.572;10.170;2023-04-24T22:05:04;8.30;99.90
50606;DHT22;36557;53.572;10.170;2023-04-24T22:07:32;8.30;99.90
50606;DHT22;36557;53.572;10.170;2023-04-24T22:09:59;8.30;99.90
50606;DHT22;36557;53.572;10.170;2023-04-24T22:12:25;8.30;99.90
50606;DHT22;36557;53.572;10.170;2023-04-24T22:14:51;8.30;99.90
50606;DHT22;36557;53.572;10.170;2023-04-24T22:17:16;8.30;99.90
50606;DHT22;36557;53.572;10.170;2023-04-24T22:19:43;8.30;99.90
50606;DHT22;36557;53.572;10.170;2023-04-24T22:22:09;8.30;99.90
50606;DHT22;36557;53.572;10.170;2023-04-24T22:24:35;8.40;99.90
50606;DHT22;36557;53.572;10.170;2023-04-24T22:27:00;8.40;99.90
50606;DHT22;36557;53.572;10.170;2023-04-24T22:29:29;8.40;99.90
50606;DHT22;36557;53.572;10.170;2023-04-24T22:31:54;8.30;99.90
50606;DHT22;36557;53.572;10.170;2023-04-24T22:34:21;8.30;99.90
50606;DHT22;36557;53.572;10.170;2023-04-24T22:36:46;8.30;99.90
50606;DHT22;36557;53.572;10.170;2023-04-24T22:39:12;8.30;99.90
50606;DHT22;36557;53.572;10.170;2023-04-24T22:41:40;8.40;99.90
50606;DHT22;36557;53.572;10.170;2023-04-24T22:44:07;8.40;99.90
50606;DHT22;36557;53.572;10.170;2023-04-24T22:46:33;8.40;99.90
50606;DHT22;36557;53.572;10.170;2023-04-24T22:48:58;8.30;99.90
50606;DHT22;36557;53.572;10.170;2023-04-24T22:51:24;8.30;99.90
50606;DHT22;36557;53.572;10.170;2023-04-24T22:53:50;8.30;99.90
50606;DHT22;36557;53.572;10.170;2023-04-24T22:56:16;8.30;99.90
50606;DHT22;36557;53.572;10.170;2023-04-24T22:58:42;8.20;99.90
50606;DHT22;36557;53.572;10.170;2023-04-24T23:01:08;8.20;99.90
50606;DHT22;36557;53.572;10.170;2023-04-24T23:03:33;8.20;99.90
50606;DHT22;36557;53.572;10.170;2023-04-24T23:06:00;8.20;99.90
50606;DHT22;36557;53.572;10.170;2023-04-24T23:08:26;8.30;99.90
50606;DHT22;36557;53.572;10.170;2023-04-24T23:10:51;8.20;99.90
50606;DHT22;36557;53.572;10.170;2023-04-24T23:13:18;8.20;99.90
50606;DHT22;36557;53.572;10.170;2023-04-24T23:15:44;8.30;99.90
50606;DHT22;36557;53.572;10.170;2023-04-24T23:18:09;8.30;99.90
50606;DHT22;36557;53.572;10.170;2023-04-24T23:20:36;8.20;99.90
50606;DHT22;36557;53.572;10.170;2023-04-24T23:23:03;8.20;99.90
50606;DHT22;36557;53.572;10.170;2023-04-24T23:25:28;8.20;99.90
50606;DHT22;36557;53.572;10.170;2023-04-24T23:27:57;8.20;99.90
50606;DHT22;36557;53.572;10.170;2023-04-24T23:30:23;8.20;99.90
50606;DHT22;36557;53.572;10.170;2023-04-24T23:32:48;8.20;99.90
50606;DHT22;36557;53.572;10.170;2023-04-24T23:35:14;8.20;99.90
50606;DHT22;36557;53.572;10.170;2023-04-24T23:37:40;8.20;99.90
50606;DHT22;36557;53.572;10.170;2023-04-24T23:40:07;8.20;99.90
50606;DHT22;36557;53.572;10.170;2023-04-24T23:42:36;8.20;99.90
50606;DHT22;36557;53.572;10.170;2023-04-24T23:45:02;8.20;99.90
50606;DHT22;36557;53.572;10.170;2023-04-24T23:47:28;8.20;99.90
50606;DHT22;36557;53.572;10.170;2023-04-24T23:49:53;8.20;99.90
50606;DHT22;36557;53.572;10.170;2023-04-24T23:52:19;8.10;99.90
50606;DHT22;36557;53.572;10.170;2023-04-24T23:54:45;8.10;99.90
50606;DHT22;36557;53.572;10.170;2023-04-24T23:57:11;8.00;99.90